Time;durP1;ratioP1;P1;durP2;ratioP2;P2;SDS_P1;SDS_P2;PMS_P1;PMS_P2;Temp;Humidity;BMP_temperature;BMP_pressure;BME280_temperature;BME280_humidity;BME280_pressure;Samples;Min_cycle;Max_cycle;Signal;HPM_P1;HPM_P2
2022/07/14 00:01:58;;;;;;;20.37;19.20;;;17.80;91.20;;;;;;5021369;28;20477;-81
2022/07/14 00:04:24;;;;;;;19.20;16.50;;;17.70;92.80;;;;;;5020493;28;20965;-82
2022/07/14 00:06:53;;;;;;;14.27;8.13;;;17.70;93.20;;;;;;5019249;28;20987;-82
2022/07/14 00:09:19;;;;;;;63.63;60.47;;;17.70;93.00;;;;;;5019095;28;20453;-82
2022/07/14 00:11:46;;;;;;;63.23;60.83;;;17.70;94.80;;;;;;5019093;28;20488;-83
2022/07/14 00:14:13;;;;;;;33.97;31.87;;;17.60;95.30;;;;;;5019269;28;20492;-83
2022/07/14 00:16:40;;;;;;;131.33;126.10;;;17.60;96.40;;;;;;5018088;28;20984;-83
2022/07/14 00:19:06;;;;;;;126.00;121.20;;;17.50;97.30;;;;;;5019421;28;20950;-83
2022/07/14 00:21:33;;;;;;;125.83;121.30;;;17.50;97.40;;;;;;5017676;28;20460;-83
2022/07/14 00:24:01;;;;;;;208.37;201.40;;;17.60;98.20;;;;;;5018091;28;20452;-83
2022/07/14 00:26:28;;;;;;;168.67;162.57;;;17.50;98.50;;;;;;5018385;28;20470;-82
2022/07/14 00:28:55;;;;;;;91.50;88.00;;;17.50;98.40;;;;;;5019131;28;20463;-83
2022/07/14 00:31:21;;;;;;;244.73;236.57;;;17.50;98.00;;;;;;5018059;28;20820;-81
2022/07/14 00:33:48;;;;;;;148.80;143.70;;;17.50;99.00;;;;;;5017310;28;20483;-81
2022/07/14 00:36:15;;;;;;;241.90;234.23;;;17.50;99.90;;;;;;5016138;28;20464;-81
2022/07/14 00:38:42;;;;;;;214.23;206.77;;;17.40;99.90;;;;;;5016806;28;20456;-82
2022/07/14 00:41:10;;;;;;;177.53;171.27;;;17.40;99.90;;;;;;5015339;28;20821;-82
2022/07/14 00:43:36;;;;;;;267.13;258.20;;;17.20;99.90;;;;;;5016204;28;20482;-82
2022/07/14 00:46:03;;;;;;;298.50;288.83;;;17.30;99.90;;;;;;5015474;28;20992;-82
2022/07/14 00:48:30;;;;;;;374.50;361.80;;;17.10;99.90;;;;;;5015546;28;20459;-82
2022/07/14 00:50:56;;;;;;;372.50;359.63;;;17.10;99.90;;;;;;5013859;28;20457;-82
2022/07/14 00:53:23;;;;;;;391.73;378.00;;;17.10;99.90;;;;;;4997359;28;20484;-82
2022/07/14 00:55:50;;;;;;;448.17;431.70;;;17.00;99.90;;;;;;4997125;28;20959;-83
2022/07/14 00:58:18;;;;;;;497.53;478.80;;;17.00;99.90;;;;;;4996763;28;20980;-81
2022/07/14 01:00:45;;;;;;;388.50;374.87;;;17.00;99.90;;;;;;4996878;28;20465;-83
2022/07/14 01:03:12;;;;;;;457.27;441.27;;;17.00;99.90;;;;;;4996309;28;20858;-82
2022/07/14 01:05:39;;;;;;;452.73;435.83;;;17.00;99.90;;;;;;4995597;28;21016;-82
2022/07/14 01:08:06;;;;;;;607.27;582.30;;;17.00;99.90;;;;;;5010214;28;20458;-82
2022/07/14 01:10:33;;;;;;;587.47;563.67;;;16.90;99.90;;;;;;5015837;28;20464;-82
2022/07/14 01:13:02;;;;;;;637.40;609.83;;;16.90;99.90;;;;;;5015686;28;20482;-82
2022/07/14 01:15:31;;;;;;;725.77;689.67;;;16.90;99.90;;;;;;5014971;28;20474;-82
2022/07/14 01:17:58;;;;;;;741.57;703.37;;;16.90;99.90;;;;;;5015736;28;20459;-82
2022/07/14 01:20:25;;;;;;;753.50;713.60;;;16.90;99.90;;;;;;5015389;28;20466;-82
2022/07/14 01:22:53;;;;;;;756.83;715.43;;;16.80;99.90;;;;;;5014978;28;20895;-82
2022/07/14 01:25:21;;;;;;;761.67;720.67;;;16.90;99.90;;;;;;5014461;28;20484;-82
2022/07/14 01:27:48;;;;;;;760.47;718.97;;;16.80;99.90;;;;;;5014872;28;20458;-82
2022/07/14 01:30:16;;;;;;;755.93;713.60;;;16.90;99.90;;;;;;5015488;28;20579;-83
2022/07/14 01:32:42;;;;;;;730.77;692.90;;;16.80;99.90;;;;;;5014908;28;20479;-82
2022/07/14 01:35:10;;;;;;;757.27;716.27;;;16.90;99.90;;;;;;5014949;28;20451;-82
2022/07/14 01:37:37;;;;;;;774.47;729.70;;;16.80;99.90;;;;;;5015241;28;20977;-81
2022/07/14 01:40:07;;;;;;;776.47;733.00;;;16.80;99.90;;;;;;5015020;28;20970;-82
2022/07/14 01:42:34;;;;;;;772.07;729.73;;;16.80;99.90;;;;;;5015200;28;20473;-82
2022/07/14 01:45:00;;;;;;;802.43;755.97;;;16.80;99.90;;;;;;5015867;28;20480;-82
2022/07/14 01:47:27;;;;;;;779.33;736.27;;;16.80;99.90;;;;;;5015325;28;20465;-82
2022/07/14 01:49:54;;;;;;;756.30;717.00;;;16.70;99.90;;;;;;5015622;28;20452;-82
2022/07/14 01:52:21;;;;;;;770.97;728.00;;;16.70;99.90;;;;;;5015579;28;20473;-83
2022/07/14 01:54:47;;;;;;;790.03;745.53;;;16.70;99.90;;;;;;5015042;28;20455;-83
2022/07/14 01:57:15;;;;;;;792.13;746.10;;;16.80;99.90;;;;;;5014859;28;20454;-82
2022/07/14 01:59:42;;;;;;;784.30;738.20;;;16.70;99.90;;;;;;5014911;28;20461;-81
2022/07/14 02:02:09;;;;;;;782.27;737.47;;;16.70;99.90;;;;;;5017721;28;20475;-82
2022/07/14 02:04:36;;;;;;;781.60;738.00;;;16.80;99.90;;;;;;5015802;28;20503;-83
2022/07/14 02:07:02;;;;;;;746.97;710.07;;;16.80;99.90;;;;;;5016969;28;20463;-83
2022/07/14 02:12:12;;;;;;;762.87;723.73;;;16.70;99.90;;;;;;5015144;28;20919;-82
2022/07/14 02:14:41;;;;;;;764.63;724.83;;;16.70;99.90;;;;;;5015287;28;20451;-82
2022/07/14 02:17:09;;;;;;;646.90;619.23;;;16.60;99.90;;;;;;5016250;28;20455;-81
2022/07/14 02:19:36;;;;;;;646.10;619.43;;;16.70;99.90;;;;;;5015241;28;20455;-81
2022/07/14 02:22:04;;;;;;;750.07;712.30;;;16.60;99.90;;;;;;5014972;28;20990;-82
2022/07/14 02:24:31;;;;;;;776.97;735.67;;;16.60;99.90;;;;;;5014654;28;20474;-82
2022/07/14 02:26:58;;;;;;;794.70;750.93;;;16.60;99.90;;;;;;5015094;28;20555;-82
2022/07/14 02:29:24;;;;;;;802.77;757.00;;;16.60;99.90;;;;;;5015105;28;20814;-82
2022/07/14 02:31:53;;;;;;;807.90;761.27;;;16.50;99.90;;;;;;5015350;28;20484;-81
2022/07/14 02:34:19;;;;;;;838.03;787.10;;;16.50;99.90;;;;;;5015927;28;21004;-81
2022/07/14 02:36:47;;;;;;;808.23;760.00;;;16.60;99.90;;;;;;5015520;28;20458;-82
2022/07/14 02:39:14;;;;;;;768.33;719.63;;;16.50;99.90;;;;;;5017718;28;20461;-82
2022/07/14 02:41:41;;;;;;;766.23;718.07;;;16.50;99.90;;;;;;5019871;28;20457;-82
2022/07/14 02:44:08;;;;;;;775.27;726.47;;;16.40;99.90;;;;;;5018533;28;20482;-82
2022/07/14 02:46:35;;;;;;;791.27;739.77;;;16.40;99.90;;;;;;5019113;28;20450;-81
2022/07/14 02:49:04;;;;;;;779.67;729.17;;;16.40;99.90;;;;;;5019181;28;20450;-81
2022/07/14 02:51:31;;;;;;;773.13;722.57;;;16.50;99.90;;;;;;5017641;28;20460;-82
2022/07/14 02:53:57;;;;;;;779.53;729.57;;;16.40;99.90;;;;;;5016810;28;20455;-81
2022/07/14 02:56:24;;;;;;;774.60;724.80;;;16.40;99.90;;;;;;5017883;28;20950;-82
2022/07/14 02:58:51;;;;;;;772.33;721.90;;;16.30;99.90;;;;;;5019530;28;20457;-82
2022/07/14 03:01:18;;;;;;;779.53;729.30;;;16.30;99.90;;;;;;5018101;28;20456;-82
2022/07/14 03:03:45;;;;;;;788.80;737.90;;;16.30;99.90;;;;;;5018728;28;20477;-82
2022/07/14 03:06:15;;;;;;;788.43;738.17;;;16.20;99.90;;;;;;5018375;28;20474;-82
2022/07/14 03:08:43;;;;;;;779.50;730.80;;;16.20;99.90;;;;;;5018415;28;20906;-82
2022/07/14 03:11:10;;;;;;;777.83;728.97;;;16.20;99.90;;;;;;5019701;28;20457;-82
2022/07/14 03:13:37;;;;;;;771.67;723.30;;;16.00;99.90;;;;;;5019739;28;20469;-83
2022/07/14 03:16:06;;;;;;;770.57;723.10;;;16.10;99.90;;;;;;5019957;28;20458;-82
2022/07/14 03:18:33;;;;;;;725.00;685.73;;;16.10;99.90;;;;;;5020907;28;21002;-82
2022/07/14 03:20:59;;;;;;;754.63;711.67;;;16.00;99.90;;;;;;5019557;28;20461;-81
2022/07/14 03:23:27;;;;;;;795.27;744.97;;;16.00;99.90;;;;;;5019056;28;20485;-81
2022/07/14 03:25:55;;;;;;;796.83;744.17;;;16.00;99.90;;;;;;5018533;28;20487;-82
2022/07/14 03:28:21;;;;;;;792.27;743.27;;;16.00;99.90;;;;;;5019159;28;20462;-82
2022/07/14 03:30:55;;;;;;;802.30;751.67;;;15.90;99.90;;;;;;5018493;28;20837;-82
2022/07/14 03:33:22;;;;;;;803.07;748.17;;;15.90;99.90;;;;;;5017952;28;20530;-82
2022/07/14 03:35:49;;;;;;;775.63;729.53;;;16.00;99.90;;;;;;5018813;28;20873;-82
2022/07/14 03:38:16;;;;;;;778.40;732.63;;;15.90;99.90;;;;;;5019217;28;20889;-84
2022/07/14 03:40:44;;;;;;;787.37;739.20;;;15.90;99.90;;;;;;5018165;28;20455;-81
2022/07/14 03:43:11;;;;;;;794.77;748.57;;;15.90;99.90;;;;;;5018021;28;20499;-82
2022/07/14 03:45:38;;;;;;;810.30;760.87;;;16.00;99.90;;;;;;5017756;28;20478;-82
2022/07/14 03:48:07;;;;;;;805.07;754.97;;;16.00;99.90;;;;;;5016794;28;20454;-84
2022/07/14 03:50:34;;;;;;;774.33;730.07;;;16.00;99.90;;;;;;5016527;28;20461;-82
2022/07/14 03:53:00;;;;;;;798.33;750.10;;;15.90;99.90;;;;;;5017576;28;20489;-82
2022/07/14 03:55:27;;;;;;;795.47;745.80;;;15.90;99.90;;;;;;5017000;28;20462;-82
2022/07/14 03:57:56;;;;;;;789.63;740.50;;;16.00;99.90;;;;;;5017031;28;20455;-81
2022/07/14 04:00:22;;;;;;;800.60;751.90;;;15.90;99.90;;;;;;5016320;28;20832;-82
2022/07/14 04:02:49;;;;;;;795.50;749.00;;;16.00;99.90;;;;;;5016497;28;20478;-82
2022/07/14 04:05:16;;;;;;;800.10;750.50;;;15.90;99.90;;;;;;5015836;28;20478;-82
2022/07/14 04:07:43;;;;;;;794.37;744.00;;;15.90;99.90;;;;;;5015661;28;20454;-82
2022/07/14 04:10:09;;;;;;;788.03;738.37;;;15.90;99.90;;;;;;5015950;28;20763;-82
2022/07/14 04:12:36;;;;;;;787.83;738.00;;;15.90;99.90;;;;;;5016608;28;20568;-81
2022/07/14 04:15:05;;;;;;;788.20;738.87;;;16.00;99.90;;;;;;5015744;28;20493;-82
2022/07/14 04:17:32;;;;;;;786.90;737.00;;;15.90;99.90;;;;;;5015327;28;20450;-82
2022/07/14 04:19:58;;;;;;;786.07;734.67;;;15.90;99.90;;;;;;5015760;28;20468;-82
2022/07/14 04:22:25;;;;;;;807.07;754.80;;;16.00;99.90;;;;;;5015488;28;20480;-82
2022/07/14 04:24:52;;;;;;;799.13;746.67;;;15.90;99.90;;;;;;5016665;28;20839;-80
2022/07/14 04:27:19;;;;;;;803.80;751.00;;;15.90;99.90;;;;;;5018373;28;20465;-79
2022/07/14 04:29:45;;;;;;;803.10;751.90;;;15.90;99.90;;;;;;5014483;28;20534;-78
2022/07/14 04:32:14;;;;;;;805.93;752.83;;;15.90;99.90;;;;;;5016249;28;20497;-79
2022/07/14 04:34:40;;;;;;;801.83;750.67;;;16.00;99.90;;;;;;5017682;28;20460;-79
2022/07/14 04:37:07;;;;;;;797.23;746.47;;;15.90;99.90;;;;;;5025590;28;20977;-79
2022/07/14 04:39:34;;;;;;;805.20;753.00;;;16.00;99.90;;;;;;5024189;28;20505;-79
2022/07/14 04:42:01;;;;;;;826.73;775.00;;;16.00;99.90;;;;;;5022374;28;20478;-79
2022/07/14 04:44:27;;;;;;;822.90;769.90;;;16.00;99.90;;;;;;5023629;28;20441;-80
2022/07/14 04:46:54;;;;;;;827.23;772.77;;;16.00;99.90;;;;;;5025035;28;20453;-84
2022/07/14 04:52:13;;;;;;;825.23;775.37;;;16.10;99.90;;;;;;5017617;28;20949;-83
2022/07/14 04:54:40;;;;;;;789.63;747.63;;;16.10;99.90;;;;;;5016906;28;20531;-83
2022/07/14 04:57:07;;;;;;;800.70;756.60;;;16.00;99.90;;;;;;5013946;28;20457;-83
2022/07/14 04:59:34;;;;;;;827.97;779.17;;;16.10;99.90;;;;;;5016236;28;20818;-84
2022/07/14 05:02:04;;;;;;;825.03;773.83;;;16.10;99.90;;;;;;5014239;28;20475;-83
2022/07/14 05:04:32;;;;;;;825.80;773.43;;;16.10;99.90;;;;;;5015023;28;21022;-83
2022/07/14 05:06:59;;;;;;;828.97;776.47;;;16.10;99.90;;;;;;5014622;28;20465;-82
2022/07/14 05:09:32;;;;;;;818.37;769.57;;;16.00;99.90;;;;;;5014745;28;20453;-83
2022/07/14 05:11:59;;;;;;;776.93;734.63;;;16.00;99.90;;;;;;5015287;28;20521;-83
2022/07/14 05:14:33;;;;;;;770.43;728.03;;;16.00;99.90;;;;;;5004369;28;20455;-84
2022/07/14 05:17:00;;;;;;;719.33;684.43;;;16.00;99.90;;;;;;4996489;28;20455;-83
2022/07/14 05:19:29;;;;;;;747.70;709.60;;;16.10;99.90;;;;;;5007226;28;20480;-83
2022/07/14 05:21:58;;;;;;;782.80;737.53;;;16.20;99.90;;;;;;5016092;28;20475;-82
2022/07/14 05:24:25;;;;;;;739.37;699.33;;;16.30;99.90;;;;;;5016298;28;20445;-83
2022/07/14 05:26:56;;;;;;;542.53;519.03;;;16.60;99.90;;;;;;5015511;28;20877;-83
2022/07/14 05:29:25;;;;;;;376.93;362.43;;;17.00;99.90;;;;;;5016064;28;20869;-84
2022/07/14 05:32:07;;;;;;;134.37;128.83;;;17.50;99.90;;;;;;5017680;28;20523;-85
2022/07/14 05:34:33;;;;;;;137.57;132.33;;;17.60;99.20;;;;;;5020247;28;20450;-80
2022/07/14 05:37:02;;;;;;;91.83;87.93;;;17.60;98.20;;;;;;5024161;28;20447;-84
2022/07/14 05:39:29;;;;;;;24.87;23.07;;;17.60;98.80;;;;;;5029473;28;20457;-82
2022/07/14 05:41:56;;;;;;;17.97;16.17;;;17.60;96.40;;;;;;5027037;28;20482;-81
2022/07/14 05:44:22;;;;;;;26.87;24.93;;;17.50;96.90;;;;;;5027530;28;20471;-83
2022/07/14 05:46:49;;;;;;;16.17;9.97;;;17.60;97.50;;;;;;5028078;28;20455;-81
2022/07/14 05:49:16;;;;;;;20.40;10.03;;;17.60;96.60;;;;;;5023751;28;20461;-82
2022/07/14 05:51:43;;;;;;;12.93;9.07;;;17.50;96.20;;;;;;5023065;28;20465;-82
2022/07/14 05:54:11;;;;;;;15.77;14.47;;;17.60;96.00;;;;;;5018634;28;20473;-82
2022/07/14 05:56:37;;;;;;;24.83;22.93;;;17.70;96.20;;;;;;5022480;28;20986;-83
2022/07/14 05:59:04;;;;;;;13.93;9.47;;;17.70;95.70;;;;;;5025950;28;20459;-82
2022/07/14 06:01:32;;;;;;;13.83;9.87;;;17.80;95.30;;;;;;5026495;28;20831;-82
2022/07/14 06:03:58;;;;;;;7.03;6.00;;;17.90;94.20;;;;;;5024318;28;20480;-82
2022/07/14 06:06:25;;;;;;;12.33;9.23;;;17.90;93.20;;;;;;5021343;28;20484;-82
2022/07/14 06:08:52;;;;;;;11.70;7.93;;;17.90;93.10;;;;;;5021614;28;20742;-82
2022/07/14 06:11:20;;;;;;;17.90;9.57;;;17.90;92.10;;;;;;5019978;28;20459;-81
2022/07/14 06:13:46;;;;;;;16.50;10.67;;;18.00;93.60;;;;;;5022946;28;20479;-81
2022/07/14 06:16:14;;;;;;;13.80;8.67;;;18.00;93.30;;;;;;5027323;28;20455;-82
2022/07/14 06:18:40;;;;;;;17.10;9.17;;;18.20;92.30;;;;;;5027461;28;20455;-83
2022/07/14 06:21:08;;;;;;;14.30;6.73;;;18.30;92.40;;;;;;5028786;28;20450;-79
2022/07/14 07:37:02;;;;;;;;;;;;;;;;;;;;;
2022/07/14 07:47:09;;;;;;;;;;;;;;;;;;;;;
2022/07/14 07:50:31;;;;;;;11.70;3.80;;;20.70;60.70;;;;;;4863056;29;20474;-85
2022/07/14 07:57:13;;;;;;;18.87;3.17;;;20.50;59.00;;;;;;4919325;29;20490;-85
2022/07/14 08:06:28;;;;;;;12.40;3.83;;;21.70;53.70;;;;;;5037016;28;20441;-85
2022/07/14 08:11:57;;;;;;;12.73;3.17;;;23.00;44.20;;;;;;5039559;28;20503;-83
2022/07/14 08:17:23;;;;;;;9.80;2.47;;;22.90;40.80;;;;;;5040440;28;20539;-83
2022/07/14 08:20:09;;;;;;;;;;;;;;;;;;;;;
2022/07/14 08:23:39;;;;;;;9.90;2.70;;;23.70;37.80;;;;;;5034892;28;20475;-86
2022/07/14 08:26:21;;;;;;;9.73;3.10;;;23.40;36.40;;;;;;5038144;28;20440;-83
2022/07/14 08:35:21;;;;;;;10.43;3.10;;;22.60;36.80;;;;;;5034064;28;20519;-85
2022/07/14 08:37:48;;;;;;;8.50;2.90;;;23.10;35.80;;;;;;5037038;28;20475;-86
2022/07/14 08:40:18;;;;;;;10.90;3.80;;;23.20;33.20;;;;;;5036491;28;20549;-85
2022/07/14 08:42:48;;;;;;;8.90;2.80;;;23.50;32.60;;;;;;5036379;28;20471;-85
2022/07/14 08:45:44;;;;;;;;;;;;;;;;;;;;;
2022/07/14 09:11:22;;;;;;;15.90;3.50;;;23.30;22.10;;;;;;5012052;28;20822;-84
2022/07/14 09:18:15;;;;;;;;;;;;;;;;;;;;;
2022/07/14 09:28:26;;;;;;;6.17;1.70;;;25.10;17.10;;;;;;4860679;29;20460;-85
2022/07/14 09:42:11;;;;;;;9.77;2.27;;;24.50;1.00;;;;;;5000229;28;20841;-84
2022/07/14 09:45:42;;;;;;;7.07;2.10;;;24.50;6.10;;;;;;4938658;29;20564;-84
2022/07/14 09:59:18;;;;;;;7.80;1.80;;;24.50;7.80;;;;;;4940269;28;20483;-84
2022/07/14 10:18:51;;;;;;;7.97;1.83;;;26.90;1.00;;;;;;4999274;28;21021;-84
2022/07/14 10:21:47;;;;;;;7.37;1.53;;;25.70;1.00;;;;;;5015707;28;20482;-83
2022/07/14 10:24:19;;;;;;;6.40;2.00;;;25.20;1.00;;;;;;5038058;28;20536;-83
2022/07/14 10:34:46;;;;;;;5.70;1.30;;;26.30;1.00;;;;;;4957303;28;20518;-85
2022/07/14 10:41:00;;;;;;;5.90;1.70;;;26.20;1.00;;;;;;4908600;28;20445;-85
2022/07/14 10:47:33;;;;;;;4.37;1.40;;;26.10;1.00;;;;;;5008574;28;20452;-85
2022/07/14 10:54:12;;;;;;;5.93;1.33;;;27.50;1.00;;;;;;5036124;28;20472;-79
2022/07/14 10:56:44;;;;;;;7.03;1.30;;;26.50;1.00;;;;;;5038661;28;20924;-81
2022/07/14 10:59:34;;;;;;;5.47;1.00;;;26.60;1.00;;;;;;5037995;28;20486;-81
2022/07/14 11:02:34;;;;;;;7.70;1.93;;;26.10;1.00;;;;;;5038399;28;20490;-80
2022/07/14 11:05:03;;;;;;;8.37;1.43;;;26.70;1.00;;;;;;5038186;28;20452;-80
2022/07/14 11:07:38;;;;;;;4.47;1.60;;;27.10;1.00;;;;;;5037742;28;20449;-80
2022/07/14 11:10:27;;;;;;;4.93;1.30;;;27.60;1.00;;;;;;5038560;28;20452;-81
2022/07/14 11:13:10;;;;;;;6.40;1.50;;;28.00;1.00;;;;;;5038472;28;20846;-80
2022/07/14 11:15:38;;;;;;;7.10;1.90;;;28.00;1.00;;;;;;5038156;28;20464;-80
2022/07/14 11:18:37;;;;;;;9.90;1.73;;;28.50;1.00;;;;;;5038553;28;20480;-81
2022/07/14 11:21:08;;;;;;;6.30;1.60;;;27.60;1.00;;;;;;4958333;29;20905;-81
2022/07/14 11:23:36;;;;;;;7.30;2.00;;;28.10;1.00;;;;;;5022762;28;20499;-80
2022/07/14 11:26:05;;;;;;;7.83;2.23;;;28.10;1.00;;;;;;5038191;28;20841;-81
2022/07/14 11:28:43;;;;;;;4.50;1.20;;;28.00;1.00;;;;;;5038647;28;20448;-80
2022/07/14 11:31:13;;;;;;;4.80;1.53;;;28.10;1.00;;;;;;5040351;28;20474;-80
2022/07/14 11:36:26;;;;;;;5.20;1.07;;;27.00;1.00;;;;;;5039057;28;20409;-80
2022/07/14 11:39:25;;;;;;;7.70;2.23;;;26.80;1.00;;;;;;5039470;28;20459;-81
2022/07/14 11:42:03;;;;;;;6.77;1.50;;;27.30;1.00;;;;;;5038283;28;21007;-80
2022/07/14 11:44:51;;;;;;;4.60;1.60;;;26.90;1.00;;;;;;5039064;28;20460;-79
2022/07/14 11:47:19;;;;;;;10.77;1.60;;;27.00;1.00;;;;;;5039646;28;20448;-81
2022/07/14 11:50:00;;;;;;;5.43;1.70;;;27.50;1.00;;;;;;5037466;28;20460;-81
2022/07/14 11:52:30;;;;;;;5.80;1.73;;;28.30;1.00;;;;;;5037841;28;20976;-81
2022/07/14 11:54:58;;;;;;;6.00;1.60;;;27.40;1.00;;;;;;5036654;28;21048;-81
2022/07/14 11:57:25;;;;;;;8.40;2.23;;;27.50;1.00;;;;;;5036470;28;20476;-80
2022/07/14 11:59:54;;;;;;;5.30;1.67;;;27.90;1.00;;;;;;5037562;28;20458;-81
2022/07/14 12:02:22;;;;;;;5.90;1.80;;;27.20;1.00;;;;;;5037388;28;20734;-81
2022/07/14 12:04:51;;;;;;;6.47;1.70;;;26.70;1.00;;;;;;5036514;28;20448;-81
2022/07/14 12:07:18;;;;;;;6.97;2.20;;;27.40;1.00;;;;;;5035769;28;20503;-81
2022/07/14 12:09:46;;;;;;;6.10;1.80;;;28.10;1.00;;;;;;5036764;28;20452;-81
2022/07/14 12:12:12;;;;;;;6.30;2.10;;;28.70;1.00;;;;;;5036678;28;20476;-80
2022/07/14 12:14:47;;;;;;;5.07;1.37;;;28.40;1.00;;;;;;5037946;28;20452;-81
2022/07/14 12:17:19;;;;;;;13.07;1.60;;;28.60;1.00;;;;;;5037590;28;20998;-80
2022/07/14 12:19:46;;;;;;;5.50;1.43;;;28.50;1.00;;;;;;5037665;28;20459;-80
2022/07/14 12:22:13;;;;;;;16.53;2.00;;;27.40;1.00;;;;;;5036707;28;20479;-81
2022/07/14 12:37:07;;;;;;;4.60;1.37;;;28.00;1.00;;;;;;5030229;28;20939;-83
2022/07/14 12:39:39;;;;;;;6.37;1.93;;;27.90;1.00;;;;;;5032625;28;20438;-82
2022/07/14 12:42:15;;;;;;;7.70;1.93;;;28.70;1.00;;;;;;5034982;28;20479;-82
2022/07/14 12:45:02;;;;;;;8.20;1.67;;;28.70;1.00;;;;;;5037490;28;20509;-83
2022/07/14 12:47:32;;;;;;;5.50;1.10;;;28.80;1.00;;;;;;5040672;28;20502;-82
2022/07/14 12:50:21;;;;;;;4.70;1.50;;;29.00;1.00;;;;;;5035111;28;20448;-83
2022/07/14 12:52:59;;;;;;;8.30;1.73;;;29.20;1.00;;;;;;5039435;28;20972;-83
2022/07/14 12:58:58;;;;;;;7.73;1.70;;;28.50;1.00;;;;;;5026198;28;20559;-83
2022/07/14 13:01:33;;;;;;;4.90;1.33;;;27.20;1.00;;;;;;5030687;28;20467;-83
2022/07/14 13:04:02;;;;;;;6.90;1.80;;;26.80;1.00;;;;;;5037041;28;20456;-82
2022/07/14 13:07:01;;;;;;;5.00;1.50;;;27.40;1.00;;;;;;5042141;28;20452;-82
2022/07/14 13:10:04;;;;;;;8.73;1.57;;;27.40;1.00;;;;;;5034923;28;20959;-83
2022/07/14 13:12:44;;;;;;;4.67;1.53;;;27.10;1.00;;;;;;5039798;28;20475;-82
2022/07/14 13:15:21;;;;;;;6.17;1.57;;;27.40;1.00;;;;;;5043296;28;20472;-82
2022/07/14 13:18:08;;;;;;;6.10;1.80;;;27.70;1.00;;;;;;5037420;28;20476;-82
2022/07/14 13:20:50;;;;;;;5.80;2.00;;;27.30;1.00;;;;;;5023515;28;20457;-83
2022/07/14 13:23:53;;;;;;;4.80;1.50;;;27.20;1.00;;;;;;5022893;28;20504;-82
2022/07/14 13:26:27;;;;;;;5.80;1.80;;;26.70;1.00;;;;;;5022882;28;20515;-82
2022/07/14 13:28:54;;;;;;;4.73;1.10;;;26.50;1.00;;;;;;5030285;28;20852;-85
2022/07/14 13:31:31;;;;;;;8.27;2.10;;;25.80;1.00;;;;;;5037427;28;20463;-84
2022/07/14 13:34:09;;;;;;;7.37;2.00;;;25.30;1.00;;;;;;5040048;28;20466;-83
2022/07/14 13:36:43;;;;;;;7.37;1.80;;;25.00;1.00;;;;;;5041352;28;20456;-83
2022/07/14 13:39:49;;;;;;;4.17;1.07;;;24.90;1.00;;;;;;5036777;28;20510;-83
2022/07/14 13:42:25;;;;;;;7.90;1.90;;;25.10;1.00;;;;;;5039121;28;20507;-83
2022/07/14 13:44:51;;;;;;;7.03;1.60;;;25.50;1.00;;;;;;5025347;23;20503;-82
2022/07/14 13:47:18;;;;;;;6.33;1.83;;;25.70;1.00;;;;;;5016235;28;20835;-82
2022/07/14 13:52:29;;;;;;;6.30;1.77;;;25.30;1.00;;;;;;5015771;28;20500;-82
2022/07/14 13:54:57;;;;;;;4.90;1.10;;;26.10;1.00;;;;;;5016247;28;20481;-82
2022/07/14 13:57:24;;;;;;;5.60;2.03;;;26.80;1.00;;;;;;5014930;28;20487;-82
2022/07/14 13:59:51;;;;;;;4.63;1.50;;;27.00;1.00;;;;;;5015488;28;20511;-82
2022/07/14 14:02:18;;;;;;;6.00;2.40;;;27.50;1.00;;;;;;5015873;28;20457;-82
2022/07/14 14:04:44;;;;;;;4.20;1.30;;;27.70;1.00;;;;;;5016339;28;20469;-83
2022/07/14 14:07:11;;;;;;;4.93;1.30;;;27.60;1.00;;;;;;5016012;28;20507;-84
2022/07/14 14:09:38;;;;;;;8.47;1.70;;;28.30;1.00;;;;;;5016017;28;20452;-82
2022/07/14 14:12:07;;;;;;;5.70;1.30;;;28.70;1.00;;;;;;5015435;28;20449;-83
2022/07/14 14:14:33;;;;;;;17.90;1.90;;;28.50;1.00;;;;;;5015428;28;20469;-82
2022/07/14 14:17:00;;;;;;;4.20;1.17;;;28.00;1.00;;;;;;5016006;28;20501;-82
2022/07/14 14:19:27;;;;;;;5.85;1.70;;;26.90;1.00;;;;;;5014709;28;20478;-82
2022/07/14 14:21:53;;;;;;;5.63;1.30;;;26.40;1.00;;;;;;5015521;28;20202;-82
2022/07/14 14:24:20;;;;;;;6.43;1.67;;;25.60;1.00;;;;;;5015781;28;20480;-82
2022/07/14 14:26:47;;;;;;;6.00;1.67;;;25.60;1.00;;;;;;5015505;28;20453;-82
2022/07/14 14:29:15;;;;;;;5.13;1.50;;;25.40;1.00;;;;;;5015954;28;20453;-82
2022/07/14 14:31:42;;;;;;;7.03;1.77;;;25.00;1.00;;;;;;5015769;28;20468;-81
2022/07/14 14:34:09;;;;;;;4.43;1.27;;;24.80;1.00;;;;;;5015508;28;20484;-82
2022/07/14 14:36:35;;;;;;;9.10;2.07;;;24.90;1.00;;;;;;5019059;28;20449;-81
2022/07/14 14:39:02;;;;;;;9.37;1.67;;;25.10;1.00;;;;;;5019202;28;20527;-82
2022/07/14 14:41:29;;;;;;;10.63;1.77;;;25.40;1.00;;;;;;5019144;28;20457;-82
2022/07/14 14:43:56;;;;;;;5.43;1.50;;;25.40;1.00;;;;;;5018590;28;20591;-82
2022/07/14 14:46:24;;;;;;;7.10;2.33;;;26.10;1.00;;;;;;5019517;28;20822;-82
2022/07/14 14:48:52;;;;;;;7.90;1.77;;;26.80;1.00;;;;;;5019398;28;20465;-82
2022/07/14 14:51:19;;;;;;;4.87;1.50;;;27.90;1.00;;;;;;5019104;28;20544;-82
2022/07/14 14:53:45;;;;;;;8.60;1.63;;;27.90;1.00;;;;;;5019358;28;20484;-82
2022/07/14 14:56:12;;;;;;;5.07;1.27;;;28.10;1.00;;;;;;5019153;28;20785;-83
2022/07/14 14:58:39;;;;;;;6.07;1.40;;;28.10;1.00;;;;;;5019690;28;20480;-83
2022/07/14 15:01:06;;;;;;;7.30;2.03;;;28.30;1.00;;;;;;5019349;28;20544;-84
2022/07/14 15:03:34;;;;;;;5.50;1.40;;;28.40;1.00;;;;;;5018912;28;20755;-82
2022/07/14 15:06:01;;;;;;;7.03;1.87;;;28.80;1.00;;;;;;5020321;28;20468;-88
2022/07/14 15:08:28;;;;;;;6.37;1.60;;;28.90;1.00;;;;;;5020770;28;20824;-86
2022/07/14 15:10:54;;;;;;;5.73;1.90;;;29.40;1.00;;;;;;5019973;28;20456;-83
2022/07/14 15:13:21;;;;;;;6.37;2.43;;;29.30;1.00;;;;;;5019757;28;20751;-83
2022/07/14 15:15:48;;;;;;;5.63;1.33;;;29.20;1.00;;;;;;5017261;28;20464;-83
2022/07/14 15:18:15;;;;;;;5.03;1.47;;;28.80;1.00;;;;;;5019024;28;20473;-83
2022/07/14 15:20:43;;;;;;;6.47;1.50;;;28.40;1.00;;;;;;5018186;28;20468;-83
2022/07/14 15:23:09;;;;;;;5.00;1.73;;;26.80;1.00;;;;;;5018269;28;20461;-83
2022/07/14 15:25:36;;;;;;;11.40;2.57;;;26.20;1.00;;;;;;5017879;28;20525;-82
2022/07/14 15:28:03;;;;;;;4.93;1.30;;;25.50;1.00;;;;;;5018143;28;20837;-82
2022/07/14 15:30:30;;;;;;;5.87;1.60;;;24.70;1.00;;;;;;5017655;28;20464;-82
2022/07/14 15:32:56;;;;;;;4.90;1.60;;;24.50;1.00;;;;;;5017471;28;20471;-82
2022/07/14 15:35:23;;;;;;;6.23;1.73;;;24.10;1.00;;;;;;5017697;28;20473;-82
2022/07/14 15:37:51;;;;;;;5.60;1.50;;;24.10;1.00;;;;;;5018633;28;20480;-83
2022/07/14 15:43:03;;;;;;;8.80;1.97;;;24.10;1.00;;;;;;5018648;28;20462;-82
2022/07/14 15:45:31;;;;;;;4.97;1.43;;;24.30;1.00;;;;;;5017497;28;20501;-82
2022/07/14 15:47:58;;;;;;;6.20;1.73;;;24.10;1.00;;;;;;5018524;28;20543;-83
2022/07/14 15:50:25;;;;;;;5.80;1.97;;;24.30;1.00;;;;;;5018076;28;20459;-82
2022/07/14 15:52:53;;;;;;;6.07;1.17;;;24.40;1.00;;;;;;5020443;28;20465;-82
2022/07/14 15:55:20;;;;;;;6.83;2.93;;;24.80;1.00;;;;;;5022434;28;20825;-83
2022/07/14 15:57:46;;;;;;;9.40;1.80;;;25.60;1.00;;;;;;5022904;28;20464;-83
2022/07/14 16:00:14;;;;;;;4.90;1.53;;;26.30;1.00;;;;;;5019627;28;20464;-82
2022/07/14 16:02:41;;;;;;;7.00;2.00;;;27.10;1.00;;;;;;5018233;28;20461;-82
2022/07/14 16:05:10;;;;;;;4.07;1.10;;;28.00;1.00;;;;;;5017634;28;20473;-82
2022/07/14 16:07:38;;;;;;;6.50;1.93;;;27.70;1.00;;;;;;5017967;28;20464;-82
2022/07/14 16:10:08;;;;;;;5.30;1.70;;;29.00;1.00;;;;;;5018759;28;20953;-85
2022/07/14 16:12:34;;;;;;;5.60;1.30;;;29.00;1.00;;;;;;5017415;28;20452;-85
2022/07/14 16:15:02;;;;;;;3.90;1.23;;;29.20;1.00;;;;;;5017375;28;20473;-85
2022/07/14 16:17:28;;;;;;;4.77;1.20;;;28.90;1.00;;;;;;5018616;28;20461;-84
2022/07/14 16:19:55;;;;;;;5.40;1.40;;;29.00;1.00;;;;;;5018151;28;20473;-84
2022/07/14 16:22:22;;;;;;;8.00;1.90;;;28.60;1.00;;;;;;5018137;28;20455;-84
2022/07/14 16:24:48;;;;;;;5.20;1.47;;;28.80;1.00;;;;;;5017480;28;20477;-83
2022/07/14 16:27:17;;;;;;;5.30;1.63;;;27.40;1.00;;;;;;5017675;28;20453;-83
2022/07/14 16:29:43;;;;;;;5.23;1.50;;;27.30;1.00;;;;;;5018139;28;20476;-84
2022/07/14 16:32:10;;;;;;;6.43;1.63;;;27.50;1.00;;;;;;5017966;28;20453;-84
2022/07/14 16:34:37;;;;;;;8.73;1.47;;;26.70;1.00;;;;;;5017298;28;20481;-84
2022/07/14 16:37:04;;;;;;;5.40;1.50;;;25.90;1.00;;;;;;5017847;28;20464;-84
2022/07/14 16:39:31;;;;;;;4.47;1.50;;;26.50;1.00;;;;;;5017487;28;20492;-84
2022/07/14 16:41:58;;;;;;;6.30;1.80;;;26.00;1.00;;;;;;5017372;28;20464;-84